Time;durP1;ratioP1;P1;durP2;ratioP2;P2;SDS_P1;SDS_P2;PMS_P1;PMS_P2;Temp;Humidity;BMP_temperature;BMP_pressure;BME280_temperature;BME280_humidity;BME280_pressure;Samples;Min_cycle;Max_cycle;Signal;HPM_P1;HPM_P2
2021/01/10 00:00:41;;;;;;;0.42;0.42;;;;;;;-2.02;93.33;100978.95;1709098;82;21858;-49
2021/01/10 00:03:09;;;;;;;0.37;0.37;;;;;;;-1.99;93.30;100983.11;1703336;84;21169;-49
2021/01/10 00:05:38;;;;;;;0.30;0.30;;;;;;;-2.01;93.23;100981.95;1720863;83;21106;-49
2021/01/10 00:08:05;;;;;;;0.13;0.13;;;;;;;-2.01;93.22;100988.64;1695084;84;21165;-49
2021/01/10 00:10:33;;;;;;;0.10;0.10;;;;;;;-2.00;93.18;100993.52;1720780;83;21174;-49
2021/01/10 00:13:02;;;;;;;0.30;0.30;;;;;;;-2.02;93.14;100988.84;1693871;84;21159;-49
2021/01/10 00:15:31;;;;;;;0.35;0.35;;;;;;;-2.04;93.17;100985.00;1701452;84;21489;-50
2021/01/10 00:18:00;;;;;;;1.90;1.75;;;;;;;-2.04;93.23;100989.02;1701450;84;21411;-49
2021/01/10 00:20:27;;;;;;;1.05;1.05;;;;;;;-2.04;93.17;100989.53;1701711;84;21141;-49
2021/01/10 00:22:56;;;;;;;3.52;2.00;;;;;;;-2.05;93.18;100991.86;1701581;84;21194;-50
2021/01/10 00:25:23;;;;;;;0.20;0.20;;;;;;;-2.05;93.26;100990.52;1701697;84;21154;-49
2021/01/10 00:27:51;;;;;;;0.47;0.47;;;;;;;-2.06;93.23;100995.05;1709277;82;21596;-49
2021/01/10 00:30:20;;;;;;;0.75;0.75;;;;;;;-2.06;93.25;100993.72;1732673;82;21390;-49
2021/01/10 00:32:52;;;;;;;0.40;0.40;;;;;;;-2.06;93.23;100994.23;1732797;82;21533;-49
2021/01/10 00:35:20;;;;;;;0.47;0.42;;;;;;;-2.10;93.24;100992.44;1732825;82;21122;-49
2021/01/10 00:37:52;;;;;;;0.65;0.65;;;;;;;-2.11;93.30;100995.29;1732786;82;21126;-49
2021/01/10 00:40:20;;;;;;;0.70;0.70;;;;;;;-2.11;93.45;100992.61;1732637;82;21110;-49
2021/01/10 00:42:48;;;;;;;0.40;0.40;;;;;;;-2.10;93.48;100986.23;1731145;81;21512;-49
2021/01/10 00:45:17;;;;;;;0.20;0.20;;;;;;;-2.11;93.51;100988.59;1727283;82;21144;-49
2021/01/10 00:47:47;;;;;;;1.35;1.07;;;;;;;-2.11;93.52;100984.58;1727177;82;21143;-49
2021/01/10 00:50:16;;;;;;;0.28;0.28;;;;;;;-2.13;93.50;100981.25;1727110;83;21127;-50
2021/01/10 00:52:44;;;;;;;0.65;0.65;;;;;;;-2.16;93.61;100987.28;1727305;82;21781;-49
2021/01/10 00:55:11;;;;;;;0.13;0.13;;;;;;;-2.17;93.64;100985.64;1727205;82;21129;-49
2021/01/10 00:57:39;;;;;;;0.30;0.30;;;;;;;-2.18;93.73;100983.98;1727253;82;21150;-50
2021/01/10 01:00:13;;;;;;;0.35;0.35;;;;;;;-2.19;93.77;100978.80;1700476;83;21137;-49
2021/01/10 01:02:43;;;;;;;0.08;0.08;;;;;;;-2.21;93.83;100984.33;1726920;83;21154;-50
2021/01/10 01:05:11;;;;;;;0.68;0.68;;;;;;;-2.21;93.88;100980.31;1727126;82;21142;-50
2021/01/10 01:07:39;;;;;;;0.13;0.13;;;;;;;-2.22;93.99;100981.34;1727238;82;21128;-49
2021/01/10 01:10:08;;;;;;;0.42;0.42;;;;;;;-2.21;94.05;100981.65;1727196;82;21268;-49
2021/01/10 01:12:36;;;;;;;0.75;0.75;;;;;;;-2.21;94.03;100985.66;1727235;83;21205;-49
2021/01/10 01:15:05;;;;;;;0.93;0.42;;;;;;;-2.21;94.14;100991.02;1727350;82;21137;-49
2021/01/10 01:17:32;;;;;;;3.98;1.20;;;;;;;-2.22;94.17;100992.05;1727223;82;21122;-49
2021/01/10 01:20:00;;;;;;;0.25;0.25;;;;;;;-2.22;94.19;100997.91;1727197;83;21418;-49
2021/01/10 01:22:28;;;;;;;0.23;0.23;;;;;;;-2.23;94.26;100993.05;1727145;83;21137;-50
2021/01/10 01:24:56;;;;;;;0.28;0.28;;;;;;;-2.24;94.25;100994.07;1727119;83;21189;-49
2021/01/10 01:27:23;;;;;;;1.77;0.55;;;;;;;-2.27;94.31;100997.13;1725556;83;21186;-50
2021/01/10 01:29:50;;;;;;;0.13;0.13;;;;;;;-2.28;94.35;101004.80;1698077;84;21104;-49
2021/01/10 01:32:17;;;;;;;0.47;0.47;;;;;;;-2.30;94.34;100998.83;1698143;84;21165;-49
2021/01/10 01:34:45;;;;;;;0.72;0.50;;;;;;;-2.31;94.55;101002.50;1698080;84;21844;-50
2021/01/10 01:37:12;;;;;;;0.57;0.50;;;;;;;-2.30;94.62;101006.00;1698056;84;21212;-49
2021/01/10 01:39:40;;;;;;;0.42;0.42;;;;;;;-2.32;94.67;101007.54;1697933;84;21172;-49
2021/01/10 01:42:13;;;;;;;0.85;0.85;;;;;;;-2.32;94.71;101003.52;1698058;84;21125;-49
2021/01/10 01:44:41;;;;;;;0.85;0.85;;;;;;;-2.33;94.82;101012.55;1698025;83;21156;-50
2021/01/10 01:47:08;;;;;;;1.37;0.47;;;;;;;-2.33;94.87;101008.53;1698158;84;21538;-49
2021/01/10 01:49:36;;;;;;;0.33;0.33;;;;;;;-2.33;94.91;101002.36;1672631;84;21540;-49
2021/01/10 01:52:04;;;;;;;0.33;0.33;;;;;;;-2.31;95.00;101003.02;1698112;84;21160;-49
2021/01/10 01:54:31;;;;;;;0.30;0.30;;;;;;;-2.31;95.04;101006.52;1650062;84;21630;-49
2021/01/10 01:56:58;;;;;;;2.60;2.37;;;;;;;-2.29;95.22;101015.20;1698191;84;21152;-49
2021/01/10 01:59:26;;;;;;;2.65;0.57;;;;;;;-2.26;95.30;101009.48;1697865;84;21153;-49
2021/01/10 02:01:53;;;;;;;0.20;0.20;;;;;;;-2.25;95.24;101011.16;1697880;84;21651;-50
2021/01/10 02:04:43;;;;;;;0.10;0.10;;;;;;;-2.23;95.24;101004.27;1698028;84;21218;-49
2021/01/10 02:07:36;;;;;;;0.30;0.30;;;;;;;-2.22;95.28;101005.44;1632679;86;21586;-49
2021/01/10 02:10:12;;;;;;;0.72;0.72;;;;;;;-2.22;95.20;101004.09;1697994;84;21177;-49
2021/01/10 02:12:47;;;;;;;0.37;0.37;;;;;;;-2.24;95.24;101014.15;1706111;84;21636;-49
2021/01/10 02:15:16;;;;;;;2.40;1.22;;;;;;;-2.25;95.23;101005.80;1710592;83;21167;-49
2021/01/10 02:17:48;;;;;;;0.75;0.75;;;;;;;-2.26;95.22;101016.17;1710652;83;21187;-49
2021/01/10 02:20:22;;;;;;;0.00;0.00;;;;;;;-2.29;95.27;101015.20;1698028;84;21588;-50
2021/01/10 02:22:52;;;;;;;0.42;0.42;;;;;;;-2.31;95.30;101019.08;1696846;84;21152;-49
2021/01/10 02:25:21;;;;;;;0.17;0.17;;;;;;;-2.34;95.33;101012.23;1706130;84;21179;-50
2021/01/10 02:27:49;;;;;;;0.60;0.60;;;;;;;-2.36;95.37;101012.92;1712402;82;21135;-50
2021/01/10 02:30:17;;;;;;;0.10;0.10;;;;;;;-2.37;95.46;101003.23;1733786;82;21691;-49
2021/01/10 02:32:48;;;;;;;0.15;0.15;;;;;;;-2.39;95.45;101006.59;1711540;82;21174;-49
2021/01/10 02:35:16;;;;;;;0.50;0.50;;;;;;;-2.42;95.54;101006.97;1711809;82;21165;-49
2021/01/10 02:38:19;;;;;;;0.45;0.45;;;;;;;-2.43;95.62;101004.77;1725614;83;21159;-49
2021/01/10 02:41:10;;;;;;;0.17;0.17;;;;;;;-2.45;95.62;101008.16;1676918;85;21277;-49
2021/01/10 02:43:40;;;;;;;0.67;0.67;;;;;;;-2.47;95.66;101010.17;1732819;82;21107;-49
2021/01/10 02:46:08;;;;;;;1.30;1.22;;;;;;;-2.50;95.70;101005.67;1786768;80;21154;-49
2021/01/10 02:48:36;;;;;;;1.15;1.00;;;;;;;-2.54;95.81;101007.89;1758553;80;21135;-49
2021/01/10 02:51:06;;;;;;;0.10;0.10;;;;;;;-2.57;95.93;101008.26;1785317;80;21165;-50
2021/01/10 02:53:33;;;;;;;0.62;0.62;;;;;;;-2.57;96.10;101013.61;1786784;80;21130;-50
2021/01/10 02:56:00;;;;;;;1.72;0.72;;;;;;;-2.56;96.17;101005.89;1786847;80;21103;-49
2021/01/10 02:58:28;;;;;;;0.40;0.40;;;;;;;-2.58;96.13;101010.59;1758625;80;21100;-49
2021/01/10 03:00:58;;;;;;;0.00;0.00;;;;;;;-2.60;96.13;101003.24;1786998;80;21135;-49
2021/01/10 03:03:26;;;;;;;3.20;1.17;;;;;;;-2.62;96.17;101006.12;1759187;80;21130;-49
2021/01/10 03:05:54;;;;;;;0.75;0.75;;;;;;;-2.65;96.20;101005.11;1758688;80;21122;-50
2021/01/10 03:08:22;;;;;;;0.20;0.20;;;;;;;-2.65;96.40;101008.30;1786810;80;21395;-49
2021/01/10 03:10:49;;;;;;;0.20;0.20;;;;;;;-2.65;96.42;101001.09;1758662;80;21087;-50
2021/01/10 03:13:18;;;;;;;0.53;0.53;;;;;;;-2.66;96.44;101004.80;1786849;80;21226;-49
2021/01/10 03:15:46;;;;;;;0.15;0.15;;;;;;;-2.67;96.46;101005.83;1786776;80;21197;-49
2021/01/10 03:18:20;;;;;;;0.55;0.53;;;;;;;-2.66;96.57;101012.00;1786782;80;21185;-49
2021/01/10 03:20:48;;;;;;;0.68;0.65;;;;;;;-2.67;96.58;101008.50;1786692;80;21143;-49
2021/01/10 03:23:16;;;;;;;0.30;0.30;;;;;;;-2.68;96.64;101010.00;1786683;80;21564;-49
2021/01/10 03:25:44;;;;;;;0.10;0.10;;;;;;;-2.68;96.78;101008.16;1786734;80;21551;-50
2021/01/10 03:28:12;;;;;;;0.88;0.72;;;;;;;-2.68;96.81;101010.83;1783296;80;21148;-49
2021/01/10 03:30:40;;;;;;;0.10;0.10;;;;;;;-2.69;96.80;101013.19;1778022;80;21157;-49
2021/01/10 03:33:07;;;;;;;1.12;0.93;;;;;;;-2.69;96.86;101017.72;1778186;80;21132;-49
2021/01/10 03:35:35;;;;;;;1.07;1.07;;;;;;;-2.70;96.83;101024.06;1778175;80;21164;-49
2021/01/10 03:38:04;;;;;;;0.93;0.88;;;;;;;-2.73;96.85;101029.27;1778333;80;21101;-50
2021/01/10 03:40:31;;;;;;;0.00;0.00;;;;;;;-2.75;96.91;101036.63;1723458;83;21142;-49
2021/01/10 03:43:00;;;;;;;0.85;0.85;;;;;;;-2.75;96.94;101036.63;1723236;83;21141;-49
2021/01/10 03:45:28;;;;;;;0.82;0.82;;;;;;;-2.77;96.96;101031.13;1739622;82;21137;-49
2021/01/10 03:47:56;;;;;;;0.70;0.70;;;;;;;-2.79;97.01;101029.98;1739991;82;21476;-50
2021/01/10 03:50:24;;;;;;;0.08;0.08;;;;;;;-2.80;97.07;101028.30;1741949;82;21154;-49
2021/01/10 03:52:51;;;;;;;1.02;0.78;;;;;;;-2.81;97.06;101026.66;1742092;81;21455;-49
2021/01/10 03:55:19;;;;;;;0.45;0.40;;;;;;;-2.84;97.11;101027.02;1741837;82;21414;-49
2021/01/10 03:57:46;;;;;;;0.30;0.30;;;;;;;-2.87;97.12;101028.69;1742101;82;21100;-49
2021/01/10 04:00:14;;;;;;;0.85;0.33;;;;;;;-2.90;97.14;101033.05;1741917;81;21458;-50
2021/01/10 04:02:44;;;;;;;0.17;0.17;;;;;;;-2.92;97.27;101033.73;1742096;82;21177;-50
2021/01/10 04:05:11;;;;;;;0.33;0.33;;;;;;;-2.93;97.37;101030.74;1742245;82;21601;-49
2021/01/10 04:07:39;;;;;;;4.25;1.77;;;;;;;-2.94;97.45;101031.73;1742045;82;21142;-50
2021/01/10 04:10:07;;;;;;;0.78;0.78;;;;;;;-2.95;97.56;101032.75;1742183;82;21103;-49
2021/01/10 04:12:34;;;;;;;0.47;0.47;;;;;;;-2.92;97.75;101033.73;1742231;81;21133;-49
2021/01/10 04:15:02;;;;;;;0.17;0.17;;;;;;;-2.91;97.80;101040.77;1742163;82;21684;-49
2021/01/10 04:17:30;;;;;;;3.20;1.10;;;;;;;-2.90;97.76;101041.91;1742386;81;21139;-49
2021/01/10 04:19:58;;;;;;;0.65;0.65;;;;;;;-2.91;97.77;101039.42;1742117;82;21181;-49
2021/01/10 04:22:25;;;;;;;0.10;0.10;;;;;;;-2.91;97.86;101040.77;1742127;82;21181;-49
2021/01/10 04:24:53;;;;;;;0.50;0.50;;;;;;;-2.92;97.94;101043.09;1742096;82;21154;-49
2021/01/10 04:27:20;;;;;;;0.10;0.10;;;;;;;-2.90;98.08;101039.74;1740919;82;21134;-50
2021/01/10 04:29:50;;;;;;;0.45;0.45;;;;;;;-2.88;98.21;101038.55;1722177;83;21145;-49
2021/01/10 04:32:17;;;;;;;0.45;0.45;;;;;;;-2.84;98.29;101044.41;1722848;83;21149;-50
2021/01/10 04:34:45;;;;;;;0.40;0.23;;;;;;;-2.80;98.31;101043.02;1722696;83;21191;-50
2021/01/10 04:37:13;;;;;;;0.20;0.20;;;;;;;-2.78;98.29;101043.67;1722780;83;21630;-50
2021/01/10 04:39:41;;;;;;;1.17;1.17;;;;;;;-2.75;98.34;101047.84;1722704;83;21113;-49
2021/01/10 04:42:08;;;;;;;0.35;0.35;;;;;;;-2.72;98.39;101048.34;1722772;83;21220;-49
2021/01/10 04:44:36;;;;;;;1.60;0.85;;;;;;;-2.69;98.45;101049.31;1719690;81;21152;-50
2021/01/10 04:47:03;;;;;;;1.75;0.72;;;;;;;-2.65;98.45;101053.27;1720977;83;21147;-50
2021/01/10 04:49:31;;;;;;;0.65;0.65;;;;;;;-2.61;98.52;101054.59;1716808;83;21582;-49
2021/01/10 04:51:58;;;;;;;0.40;0.40;;;;;;;-2.57;98.49;101056.42;1692620;83;21443;-49
2021/01/10 04:54:27;;;;;;;0.10;0.10;;;;;;;-2.52;98.48;101057.20;1688665;83;21123;-49
2021/01/10 04:56:56;;;;;;;0.10;0.10;;;;;;;-2.50;98.47;101056.52;1692407;83;21150;-49
2021/01/10 04:59:23;;;;;;;0.00;0.00;;;;;;;-2.47;98.46;101058.87;1688955;83;21536;-49
2021/01/10 05:01:52;;;;;;;5.47;1.55;;;;;;;-2.45;98.42;101068.86;1692593;83;21163;-49
2021/01/10 05:04:20;;;;;;;0.42;0.42;;;;;;;-2.42;98.45;101065.84;1689007;83;21144;-50
2021/01/10 05:06:48;;;;;;;0.00;0.00;;;;;;;-2.40;98.39;101059.30;1692548;83;21154;-49
2021/01/10 05:09:18;;;;;;;0.40;0.40;;;;;;;-2.37;98.36;101068.82;1716834;83;21203;-49
2021/01/10 05:11:46;;;;;;;0.23;0.23;;;;;;;-2.33;98.35;101074.63;1692501;83;21509;-49
2021/01/10 05:14:13;;;;;;;0.33;0.33;;;;;;;-2.30;98.30;101082.30;1716799;83;21158;-50
2021/01/10 05:16:40;;;;;;;1.17;1.07;;;;;;;-2.28;98.26;101085.13;1715358;83;21136;-50
2021/01/10 05:19:08;;;;;;;0.17;0.17;;;;;;;-2.25;98.26;101083.45;1646123;83;21672;-51
2021/01/10 05:21:40;;;;;;;2.70;0.68;;;;;;;-2.22;98.22;101089.77;1716787;83;21162;-50
2021/01/10 05:24:08;;;;;;;;;;;;;;;-2.19;98.14;101084.05;1696211;83;21159;-50
2021/01/10 05:26:36;;;;;;;0.65;0.65;;;;;;;-2.16;98.13;101087.70;1731684;82;20259;-50
2021/01/10 05:29:06;;;;;;;0.75;0.75;;;;;;;-2.14;98.09;101090.72;1779958;80;21118;-50
2021/01/10 05:31:42;;;;;;;1.20;0.53;;;;;;;-2.12;98.08;101094.88;1778361;80;21156;-51
2021/01/10 05:34:15;;;;;;;1.35;1.25;;;;;;;-2.08;98.04;101098.02;1778025;80;21156;-50
2021/01/10 05:36:42;;;;;;;0.10;0.10;;;;;;;-2.06;97.98;101098.16;1778461;80;21201;-50
2021/01/10 05:39:26;;;;;;;0.90;0.90;;;;;;;-2.04;97.93;101096.14;1778236;80;21530;-50
2021/01/10 05:42:04;;;;;;;0.50;0.50;;;;;;;-2.01;97.84;101105.66;1778365;80;21168;-51
2021/01/10 05:44:46;;;;;;;0.62;0.62;;;;;;;-2.00;97.80;101104.67;1778284;80;21133;-50
2021/01/10 05:47:15;;;;;;;0.23;0.23;;;;;;;-1.99;97.73;101106.32;1777855;80;21188;-50
2021/01/10 05:49:53;;;;;;;0.10;0.10;;;;;;;-1.97;97.69;101109.66;1778412;80;21432;-50
2021/01/10 05:52:22;;;;;;;0.10;0.10;;;;;;;-1.96;97.65;101112.64;1778591;80;21093;-50
2021/01/10 05:57:30;;;;;;;0.20;0.20;;;;;;;-1.89;97.61;101117.61;1847714;76;29014;-49
2021/01/10 05:59:58;;;;;;;1.25;0.85;;;;;;;-1.89;97.57;101111.42;1798641;78;21161;-48
2021/01/10 06:02:34;;;;;;;2.17;1.17;;;;;;;-1.87;97.50;101116.10;1786368;80;21865;-49
2021/01/10 06:05:18;;;;;;;2.40;2.20;;;;;;;-1.84;97.47;101120.58;1786062;79;21154;-49
2021/01/10 06:07:47;;;;;;;1.45;1.35;;;;;;;-1.80;97.42;101115.19;1785845;80;21115;-49
2021/01/10 06:10:27;;;;;;;0.33;0.33;;;;;;;-1.77;97.35;101113.48;1785712;78;21114;-49
2021/01/10 06:13:03;;;;;;;1.07;1.07;;;;;;;-1.72;97.25;101125.51;1785947;80;21123;-49
2021/01/10 06:15:31;;;;;;;0.30;0.30;;;;;;;-1.68;97.11;101122.77;1786081;78;21153;-49
2021/01/10 06:18:01;;;;;;;0.33;0.33;;;;;;;-1.63;96.97;101127.07;1785996;80;21150;-49
2021/01/10 06:20:30;;;;;;;0.47;0.47;;;;;;;-1.59;96.74;101126.53;1785901;78;21197;-50
2021/01/10 06:23:00;;;;;;;0.30;0.30;;;;;;;-1.55;96.61;101131.03;1786221;80;21111;-49
2021/01/10 06:25:29;;;;;;;0.13;0.13;;;;;;;-1.50;96.40;101127.30;1786139;78;21213;-49
2021/01/10 06:28:12;;;;;;;2.83;0.53;;;;;;;-1.46;96.25;101139.30;1786148;80;21583;-50
2021/01/10 06:30:57;;;;;;;3.60;1.07;;;;;;;-1.41;96.03;101134.73;1785987;80;20979;-50
2021/01/10 06:33:31;;;;;;;0.78;0.78;;;;;;;-1.36;95.85;101141.70;1786085;80;21106;-49
2021/01/10 06:36:03;;;;;;;0.33;0.33;;;;;;;-1.31;95.46;101148.20;1785977;80;21125;-50
2021/01/10 06:38:35;;;;;;;1.52;0.72;;;;;;;-1.26;95.31;101148.14;1786071;80;21457;-50
2021/01/10 06:41:26;;;;;;;0.40;0.40;;;;;;;-1.24;95.10;101150.14;1786058;80;21084;-49
2021/01/10 06:46:37;;;;;;;0.30;0.30;;;;;;;-1.15;94.53;101149.03;1847830;76;29014;-49
2021/01/10 06:49:05;;;;;;;0.78;0.78;;;;;;;-1.17;94.32;101151.06;1810380;78;21139;-50
2021/01/10 06:51:33;;;;;;;0.72;0.50;;;;;;;-1.17;94.04;101143.02;1786048;80;21050;-49
2021/01/10 06:54:04;;;;;;;2.20;0.45;;;;;;;-1.15;93.71;101146.35;1755778;80;21561;-50
2021/01/10 06:56:32;;;;;;;0.60;0.60;;;;;;;-1.14;93.46;101142.64;1786431;80;21103;-50
2021/01/10 06:59:08;;;;;;;0.30;0.30;;;;;;;-1.13;93.19;101145.66;1755860;80;21560;-50
2021/01/10 07:01:53;;;;;;;0.47;0.47;;;;;;;-1.12;92.89;101154.84;1786133;80;21102;-51
2021/01/10 07:04:25;;;;;;;8.38;1.20;;;;;;;-1.11;92.57;101157.88;1784652;78;21584;-51
2021/01/10 07:06:53;;;;;;;0.80;0.80;;;;;;;-1.08;92.24;101158.01;1755921;80;21170;-51
2021/01/10 07:09:21;;;;;;;0.40;0.40;;;;;;;-1.05;92.01;101164.34;1777350;78;21134;-51
2021/01/10 07:11:50;;;;;;;0.72;0.72;;;;;;;-1.01;91.69;101164.81;1785862;80;21165;-51
2021/01/10 07:14:24;;;;;;;0.82;0.82;;;;;;;-0.95;91.37;101168.91;1785875;78;21130;-50
2021/01/10 07:17:09;;;;;;;1.55;0.50;;;;;;;-0.86;91.05;101168.31;1785805;80;21174;-50
2021/01/10 07:19:43;;;;;;;0.23;0.23;;;;;;;-0.75;90.77;101176.39;1783861;78;21210;-51
2021/01/10 07:22:28;;;;;;;0.65;0.65;;;;;;;-0.61;90.59;101180.08;1785525;80;21525;-50
2021/01/10 07:24:56;;;;;;;0.17;0.17;;;;;;;-0.49;90.35;101179.41;1785868;78;21421;-51
2021/01/10 07:27:32;;;;;;;2.02;1.15;;;;;;;-0.36;89.55;101184.61;1783757;80;21124;-51
2021/01/10 07:30:20;;;;;;;2.65;0.60;;;;;;;-0.31;89.23;101187.03;1754564;80;21173;-51
2021/01/10 07:32:48;;;;;;;1.12;0.55;;;;;;;-0.26;88.85;101194.53;1721151;83;21205;-51
2021/01/10 07:35:16;;;;;;;0.37;0.37;;;;;;;-0.24;88.38;101193.83;1695522;83;21498;-51
2021/01/10 07:37:45;;;;;;;1.05;1.00;;;;;;;-0.22;88.09;101202.54;1677481;84;21143;-52
2021/01/10 07:40:15;;;;;;;1.12;0.62;;;;;;;-0.21;88.05;101200.16;1708652;83;21132;-51
2021/01/10 07:42:43;;;;;;;0.00;0.00;;;;;;;-0.22;87.93;101197.99;1673867;84;21161;-51
2021/01/10 07:45:17;;;;;;;0.90;0.55;;;;;;;-0.21;87.87;101192.10;1674762;84;21597;-51
2021/01/10 07:47:47;;;;;;;0.80;0.40;;;;;;;-0.22;87.86;101193.96;1750320;81;21123;-51
2021/01/10 07:50:19;;;;;;;0.95;0.95;;;;;;;-0.20;87.91;101193.75;1750400;81;21119;-51
2021/01/10 07:52:58;;;;;;;0.70;0.53;;;;;;;-0.18;87.82;101201.11;1755475;80;21116;-51
2021/01/10 07:55:27;;;;;;;1.50;0.50;;;;;;;-0.17;87.83;101196.08;1786273;80;21175;-51
2021/01/10 07:58:12;;;;;;;2.40;0.65;;;;;;;-0.16;87.87;101202.28;1786628;80;21141;-51
2021/01/10 08:00:50;;;;;;;0.30;0.30;;;;;;;-0.18;87.92;101202.46;1786507;78;21110;-52
2021/01/10 08:03:25;;;;;;;0.40;0.35;;;;;;;-0.17;88.00;101200.59;1786382;80;21923;-51
2021/01/10 08:06:00;;;;;;;2.92;1.10;;;;;;;-0.17;88.12;101201.45;1786202;80;21133;-51
2021/01/10 08:08:45;;;;;;;1.70;1.17;;;;;;;-0.19;88.33;101202.15;1786390;80;21118;-51
2021/01/10 08:11:30;;;;;;;0.45;0.45;;;;;;;-0.18;88.44;101199.77;1786206;80;21503;-52
2021/01/10 08:13:58;;;;;;;2.65;1.00;;;;;;;-0.18;88.51;101203.80;1721861;83;21162;-52
2021/01/10 08:16:31;;;;;;;1.30;1.20;;;;;;;-0.17;88.64;101195.22;1722041;83;21160;-51
2021/01/10 08:19:02;;;;;;;1.55;0.70;;;;;;;-0.15;88.66;101196.70;1732998;82;21105;-51
2021/01/10 08:21:31;;;;;;;0.28;0.28;;;;;;;-0.14;88.78;101193.01;1732920;82;21188;-52
2021/01/10 08:23:59;;;;;;;2.35;1.02;;;;;;;-0.13;88.78;101201.89;1786608;80;21519;-51
2021/01/10 08:26:27;;;;;;;0.78;0.78;;;;;;;-0.12;88.87;101196.34;1786451;80;21149;-52
2021/01/10 08:28:57;;;;;;;0.37;0.37;;;;;;;-0.09;88.89;101195.12;1766566;80;21135;-52
2021/01/10 08:31:26;;;;;;;0.20;0.20;;;;;;;-0.06;88.82;101196.91;1785532;80;21108;-52
2021/01/10 08:34:07;;;;;;;0.33;0.33;;;;;;;-0.04;88.87;101194.86;1785370;80;21141;-51
2021/01/10 08:36:35;;;;;;;0.30;0.30;;;;;;;-0.03;88.88;101188.97;1785501;80;21141;-51
2021/01/10 08:39:09;;;;;;;0.47;0.47;;;;;;;0.02;88.71;101191.09;1784241;78;21596;-51
2021/01/10 08:41:42;;;;;;;0.50;0.50;;;;;;;0.04;88.85;101187.70;1734627;82;21195;-52
2021/01/10 08:44:18;;;;;;;2.35;1.32;;;;;;;0.07;88.79;101178.73;1785955;80;21154;-51
2021/01/10 08:46:49;;;;;;;0.25;0.23;;;;;;;0.10;88.59;101177.52;1790235;79;21723;-51
2021/01/10 08:49:25;;;;;;;3.58;0.50;;;;;;;0.14;88.60;101173.43;1791351;78;21185;-51
2021/01/10 08:51:53;;;;;;;1.37;0.78;;;;;;;0.18;88.38;101170.69;1760367;81;21121;-52
2021/01/10 08:54:23;;;;;;;0.20;0.20;;;;;;;0.21;88.08;101167.08;1782092;80;21177;-52
2021/01/10 08:56:53;;;;;;;0.20;0.20;;;;;;;0.23;88.12;101165.56;1790395;80;21146;-51
2021/01/10 08:59:21;;;;;;;1.15;1.12;;;;;;;0.26;88.10;101166.51;1790371;79;21584;-51
2021/01/10 09:01:50;;;;;;;0.72;0.72;;;;;;;0.30;88.06;101166.97;1788292;79;21162;-51
2021/01/10 09:04:18;;;;;;;2.17;1.20;;;;;;;0.32;87.95;101172.47;1766543;80;21525;-52
2021/01/10 09:07:09;;;;;;;0.37;0.37;;;;;;;0.35;87.77;101169.91;1786457;80;21560;-52
2021/01/10 09:10:00;;;;;;;1.75;0.80;;;;;;;0.36;87.74;101160.80;1787870;78;21122;-49
2021/01/10 09:12:48;;;;;;;1.05;1.05;;;;;;;0.39;87.58;101160.41;1767748;80;21067;-49
2021/01/10 09:15:32;;;;;;;1.45;0.93;;;;;;;0.41;87.51;101161.87;1703416;84;21552;-49
2021/01/10 09:18:02;;;;;;;1.57;0.75;;;;;;;0.45;87.40;101158.81;1752217;80;21161;-49
2021/01/10 09:20:32;;;;;;;0.90;0.90;;;;;;;0.48;87.43;101156.55;1774865;80;21590;-49
2021/01/10 09:22:59;;;;;;;0.80;0.80;;;;;;;0.50;87.40;101147.78;1739146;82;21125;-52
2021/01/10 09:25:31;;;;;;;0.68;0.68;;;;;;;0.54;87.08;101151.72;1742130;80;21137;-51
2021/01/10 09:28:11;;;;;;;3.10;0.72;;;;;;;0.58;86.99;101161.59;1768009;80;21536;-52
2021/01/10 09:30:41;;;;;;;0.75;0.75;;;;;;;0.61;86.90;101151.77;1787767;79;21165;-52
2021/01/10 09:33:10;;;;;;;2.10;2.00;;;;;;;0.64;86.93;101152.72;1791568;79;21149;-51
2021/01/10 09:35:43;;;;;;;0.33;0.33;;;;;;;0.67;86.47;101146.97;1790758;78;21584;-52
2021/01/10 09:38:13;;;;;;;0.28;0.28;;;;;;;0.70;86.40;101147.91;1791424;79;21157;-51
2021/01/10 09:41:08;;;;;;;0.55;0.55;;;;;;;0.72;86.44;101141.83;1791328;80;21605;-52
2021/01/10 09:43:44;;;;;;;0.23;0.23;;;;;;;0.75;86.15;101152.19;1777945;78;21174;-51
2021/01/10 09:46:38;;;;;;;1.52;0.85;;;;;;;0.78;85.91;101151.78;1740478;82;21435;-51
2021/01/10 09:49:19;;;;;;;2.98;2.00;;;;;;;0.81;85.85;101144.66;1747380;80;21119;-52
2021/01/10 09:52:12;;;;;;;5.87;1.42;;;;;;;0.85;85.66;101148.63;1719838;82;21140;-51
2021/01/10 09:54:40;;;;;;;2.20;0.62;;;;;;;0.86;85.46;101142.20;1711685;82;21160;-51
2021/01/10 09:57:16;;;;;;;1.02;1.00;;;;;;;0.90;85.51;101143.17;1734136;82;21140;-51
2021/01/10 09:59:45;;;;;;;1.20;1.10;;;;;;;0.92;85.56;101139.25;1734601;81;21153;-52
2021/01/10 10:02:26;;;;;;;0.45;0.45;;;;;;;0.95;85.48;101138.02;1751581;81;21569;-52
2021/01/10 10:04:54;;;;;;;2.27;1.85;;;;;;;0.97;85.16;101137.31;1759247;80;21605;-51
2021/01/10 10:07:48;;;;;;;7.95;1.55;;;;;;;0.99;85.21;101140.61;1759054;81;21252;-51
2021/01/10 10:10:26;;;;;;;0.68;0.68;;;;;;;1.02;85.25;101148.30;1753832;81;21600;-51
2021/01/10 10:13:04;;;;;;;0.50;0.50;;;;;;;1.06;85.32;101144.16;1759319;81;21514;-52
2021/01/10 10:15:42;;;;;;;1.40;0.68;;;;;;;1.10;84.80;101143.27;1733150;81;21146;-52
2021/01/10 10:18:19;;;;;;;0.20;0.20;;;;;;;1.13;84.77;101139.64;1727324;83;21153;-52
2021/01/10 10:20:47;;;;;;;1.10;1.05;;;;;;;1.14;84.84;101135.95;1727439;81;21482;-52
2021/01/10 10:23:15;;;;;;;1.98;0.88;;;;;;;1.16;84.88;101139.77;1758401;81;21684;-51
2021/01/10 10:25:45;;;;;;;0.80;0.45;;;;;;;1.19;84.67;101140.21;1788623;78;21141;-52
2021/01/10 10:28:13;;;;;;;3.47;0.85;;;;;;;1.22;84.64;101140.33;1788609;79;21137;-51
2021/01/10 10:30:42;;;;;;;0.85;0.60;;;;;;;1.25;84.60;101144.77;1788523;78;21243;-52
2021/01/10 10:33:10;;;;;;;0.47;0.42;;;;;;;1.27;84.29;101150.80;1726339;83;21178;-51
2021/01/10 10:35:40;;;;;;;0.68;0.68;;;;;;;1.29;84.25;101150.08;1788099;80;21393;-51
2021/01/10 10:38:10;;;;;;;0.20;0.20;;;;;;;1.31;83.84;101149.89;1765761;80;21157;-51
2021/01/10 10:40:38;;;;;;;0.20;0.20;;;;;;;1.32;83.64;101150.72;1728303;81;21148;-51
2021/01/10 10:43:06;;;;;;;0.30;0.30;;;;;;;1.31;83.67;101154.42;1788724;80;21122;-52
2021/01/10 10:45:34;;;;;;;0.95;0.55;;;;;;;1.30;83.66;101148.22;1781385;78;21121;-51
2021/01/10 10:48:04;;;;;;;2.20;1.80;;;;;;;1.30;83.66;101152.26;1785458;80;21141;-52
2021/01/10 10:50:33;;;;;;;0.47;0.47;;;;;;;1.29;83.57;101152.78;1788336;78;21117;-49
2021/01/10 10:53:04;;;;;;;2.58;0.50;;;;;;;1.29;83.61;101154.65;1786224;80;21138;-49
2021/01/10 10:55:32;;;;;;;0.40;0.40;;;;;;;1.30;83.58;101153.60;1736299;82;21162;-49
2021/01/10 10:58:00;;;;;;;0.82;0.45;;;;;;;1.28;83.62;101157.83;1736640;82;21206;-49
2021/01/10 11:00:32;;;;;;;1.05;0.78;;;;;;;1.28;83.83;101155.66;1737807;82;21170;-49
2021/01/10 11:03:00;;;;;;;0.30;0.30;;;;;;;1.28;83.90;101155.13;1740610;82;21137;-49
2021/01/10 11:05:28;;;;;;;0.05;0.05;;;;;;;1.31;83.67;101158.47;1738316;81;21138;-49
2021/01/10 11:07:57;;;;;;;2.60;1.10;;;;;;;1.29;83.67;101160.86;1760153;81;21147;-49
2021/01/10 11:10:26;;;;;;;0.80;0.80;;;;;;;1.26;83.77;101151.84;1760029;80;21122;-50
2021/01/10 11:12:54;;;;;;;1.02;0.90;;;;;;;1.25;83.71;101155.55;1758713;80;21535;-49
2021/01/10 11:15:23;;;;;;;0.53;0.53;;;;;;;1.24;83.79;101152.55;1781106;80;21126;-49
2021/01/10 11:17:52;;;;;;;4.58;1.75;;;;;;;1.23;83.78;101155.44;1788224;80;21149;-49
2021/01/10 11:20:20;;;;;;;0.08;0.08;;;;;;;1.21;83.78;101157.00;1789473;80;21145;-49
2021/01/10 11:22:49;;;;;;;0.55;0.50;;;;;;;1.21;83.82;101158.34;1731231;82;21153;-49
2021/01/10 11:25:17;;;;;;;0.10;0.10;;;;;;;1.18;83.93;101157.38;1790660;78;21110;-49
2021/01/10 11:27:46;;;;;;;1.75;1.25;;;;;;;1.17;84.09;101154.38;1791280;80;21106;-49
2021/01/10 11:30:14;;;;;;;3.83;1.17;;;;;;;1.18;84.17;101157.38;1791162;79;21125;-51
2021/01/10 11:32:41;;;;;;;1.12;1.12;;;;;;;1.19;84.12;101161.75;1734814;82;21473;-50
2021/01/10 11:35:09;;;;;;;0.33;0.33;;;;;;;1.21;84.19;101156.14;1791304;80;21738;-50
2021/01/10 11:37:37;;;;;;;1.35;1.25;;;;;;;1.20;84.26;101155.84;1787404;80;21560;-50
2021/01/10 11:40:05;;;;;;;0.53;0.53;;;;;;;1.22;84.32;101164.03;1789461;80;21799;-50
2021/01/10 11:42:35;;;;;;;0.28;0.28;;;;;;;1.23;84.38;101162.98;1735100;82;21129;-50
2021/01/10 11:45:03;;;;;;;1.42;1.10;;;;;;;1.24;84.38;101163.32;1791586;80;21162;-50
2021/01/10 11:47:31;;;;;;;0.13;0.13;;;;;;;1.26;84.30;101155.87;1791410;79;21141;-51
2021/01/10 11:49:58;;;;;;;0.45;0.40;;;;;;;1.27;84.25;101157.53;1791455;79;21366;-50